createdAt,value
2019-04-01T00:01:00.114Z,2.10
2019-04-01T00:03:32.805Z,1.82
2019-04-01T00:05:59.059Z,2.75
2019-04-01T00:08:25.516Z,2.27
2019-04-01T00:10:51.880Z,2.12
2019-04-01T00:13:18.228Z,2.20
2019-04-01T00:15:44.624Z,2.12
2019-04-01T00:18:10.876Z,1.90
2019-04-01T00:20:37.201Z,2.05
2019-04-01T00:23:03.885Z,2.08
2019-04-01T00:25:30.348Z,1.95
2019-04-01T00:27:56.702Z,2.10
2019-04-01T00:30:23.020Z,2.02
2019-04-01T00:32:49.248Z,2.00
2019-04-01T00:35:15.630Z,2.20
2019-04-01T00:37:41.907Z,2.10
2019-04-01T00:40:08.369Z,1.98
2019-04-01T00:42:54.873Z,2.00
2019-04-01T00:45:23.140Z,2.25
2019-04-01T00:47:49.401Z,2.20
2019-04-01T00:50:15.991Z,2.00
2019-04-01T00:52:42.265Z,2.30
2019-04-01T00:55:08.856Z,2.20
2019-04-01T00:57:35.233Z,2.20
2019-04-01T01:00:01.728Z,2.15
2019-04-01T01:02:29.795Z,2.50
2019-04-01T01:04:55.971Z,2.50
2019-04-01T01:07:22.553Z,2.47
2019-04-01T01:09:48.971Z,2.22
2019-04-01T01:12:15.217Z,2.25
2019-04-01T01:14:42.872Z,1.98
2019-04-01T01:17:09.155Z,2.12
2019-04-01T01:19:35.502Z,2.10
2019-04-01T01:22:01.868Z,2.00
2019-04-01T01:24:32.228Z,2.30
2019-04-01T01:26:56.827Z,2.50
2019-04-01T01:29:23.245Z,1.82
2019-04-01T01:31:52.610Z,2.22
2019-04-01T01:34:19.043Z,2.15
2019-04-01T01:36:45.431Z,2.35
2019-04-01T01:39:11.782Z,1.85
2019-04-01T01:41:38.059Z,2.00
2019-04-01T01:44:04.337Z,1.98
2019-04-01T01:46:30.631Z,1.72
2019-04-01T01:48:56.864Z,2.10
2019-04-01T01:51:23.119Z,2.08
2019-04-01T01:53:51.310Z,2.10
2019-04-01T01:56:17.594Z,2.75
2019-04-01T01:58:43.961Z,1.80
2019-04-01T02:01:10.259Z,1.85
2019-04-01T02:03:36.498Z,2.50
2019-04-01T02:06:02.972Z,2.25
2019-04-01T02:08:29.503Z,2.10
2019-04-01T02:10:57.917Z,2.27
2019-04-01T02:13:27.471Z,2.40
2019-04-01T02:16:06.977Z,2.20
2019-04-01T02:18:33.546Z,2.45
2019-04-01T02:20:59.935Z,2.15
2019-04-01T02:23:26.186Z,2.20
2019-04-01T02:25:52.493Z,2.25
2019-04-01T02:28:18.737Z,2.10
2019-04-01T02:30:45.151Z,2.30
2019-04-01T02:33:11.394Z,2.10
2019-04-01T02:35:38.049Z,2.12
2019-04-01T02:38:04.466Z,1.95
2019-04-01T02:40:32.065Z,2.20
2019-04-01T02:42:58.400Z,2.37
2019-04-01T02:45:24.775Z,2.55
2019-04-01T02:47:51.189Z,2.22
2019-04-01T02:50:17.651Z,2.05
2019-04-01T02:52:44.019Z,2.15
2019-04-01T02:55:11.387Z,2.37
2019-04-01T02:57:37.661Z,2.55
2019-04-01T03:00:06.221Z,2.08
2019-04-01T03:02:32.687Z,1.90
2019-04-01T03:04:58.985Z,1.90
2019-04-01T03:07:25.252Z,2.00
2019-04-01T03:09:51.563Z,1.98
2019-04-01T03:12:17.840Z,2.35
2019-04-01T03:14:44.093Z,2.37
2019-04-01T03:17:10.402Z,2.35
2019-04-01T03:19:36.764Z,2.40
2019-04-01T03:22:07.867Z,2.00
2019-04-01T03:24:38.907Z,2.27
2019-04-01T03:27:05.289Z,2.50
2019-04-01T03:29:31.558Z,2.60
2019-04-01T03:31:57.827Z,2.22
2019-04-01T03:34:24.220Z,2.10
2019-04-01T03:36:53.488Z,2.40
2019-04-01T03:39:19.770Z,2.22
2019-04-01T03:41:46.049Z,2.40
2019-04-01T03:44:12.309Z,2.40
2019-04-01T03:46:38.579Z,2.20
2019-04-01T03:49:04.988Z,2.40
2019-04-01T03:51:31.401Z,2.65
2019-04-01T03:53:57.907Z,2.10
2019-04-01T03:56:24.154Z,2.67
2019-04-01T03:58:50.425Z,2.27
2019-04-01T04:01:16.709Z,2.45
2019-04-01T04:03:43.076Z,2.47
2019-04-01T04:06:09.581Z,2.30
2019-04-01T04:08:35.965Z,2.52
2019-04-01T04:11:08.251Z,2.70
2019-04-01T04:13:34.829Z,2.50
2019-04-01T04:16:01.196Z,2.20
2019-04-01T04:18:27.512Z,2.50
2019-04-01T04:20:53.817Z,2.62
2019-04-01T04:23:20.418Z,2.35
2019-04-01T04:25:48.669Z,2.65
2019-04-01T04:28:14.949Z,2.22
2019-04-01T04:30:41.215Z,3.62
2019-04-01T04:33:07.839Z,3.25
2019-04-01T04:35:34.153Z,3.17
2019-04-01T04:38:00.604Z,3.08
2019-04-01T04:40:26.907Z,3.40
2019-04-01T04:42:57.554Z,3.10
2019-04-01T04:45:23.966Z,3.00
2019-04-01T04:47:50.321Z,3.15
2019-04-01T04:50:16.704Z,2.47
2019-04-01T04:52:43.058Z,3.12
2019-04-01T04:55:09.590Z,3.25
2019-04-01T04:57:35.847Z,3.17
2019-04-01T05:00:11.190Z,3.50
2019-04-01T05:02:37.494Z,3.10
2019-04-01T05:05:05.132Z,3.00
2019-04-01T05:07:33.328Z,3.00
2019-04-01T05:09:59.679Z,3.62
2019-04-01T05:12:26.017Z,3.75
2019-04-01T05:14:52.751Z,3.10
2019-04-01T05:17:19.070Z,3.47
2019-04-01T05:19:45.276Z,2.98
2019-04-01T05:22:12.218Z,3.67
2019-04-01T05:24:39.102Z,3.25
2019-04-01T05:27:06.898Z,3.37
2019-04-01T05:29:34.078Z,3.70
2019-04-01T05:32:00.954Z,4.10
2019-04-01T05:34:28.057Z,3.30
2019-04-01T05:36:54.546Z,3.95
2019-04-01T05:39:23.435Z,4.28
2019-04-01T05:41:49.964Z,3.55
2019-04-01T05:44:16.348Z,3.80
2019-04-01T05:46:42.938Z,3.75
2019-04-01T05:49:09.533Z,4.20
2019-04-01T05:51:36.046Z,3.20
2019-04-01T05:54:03.008Z,4.12
2019-04-01T05:56:29.455Z,3.92
2019-04-01T05:58:55.934Z,3.75
2019-04-01T06:01:24.370Z,3.70
2019-04-01T06:03:50.825Z,3.20
2019-04-01T06:06:17.305Z,3.80
2019-04-01T06:08:44.157Z,3.58
2019-04-01T06:11:10.640Z,3.27
2019-04-01T06:13:37.494Z,3.67
2019-04-01T06:16:03.841Z,3.85
2019-04-01T06:18:30.455Z,3.65
2019-04-01T06:20:57.815Z,3.27
2019-04-01T06:23:24.230Z,3.50
2019-04-01T06:25:51.411Z,3.47
2019-04-01T06:28:17.825Z,3.08
2019-04-01T06:30:44.449Z,3.30
2019-04-01T06:33:11.039Z,3.00
2019-04-01T06:35:37.408Z,3.22
2019-04-01T06:38:03.876Z,2.80
2019-04-01T06:40:30.342Z,3.55
2019-04-01T06:42:56.655Z,3.12
2019-04-01T06:45:23.150Z,2.58
2019-04-01T06:47:49.704Z,2.50
2019-04-01T06:50:16.093Z,2.87
2019-04-01T06:52:42.308Z,3.12
2019-04-01T06:55:08.858Z,3.08
2019-04-01T06:57:35.442Z,2.70
2019-04-01T07:00:01.962Z,2.47
2019-04-01T07:02:28.345Z,2.40
2019-04-01T07:04:55.014Z,2.83
2019-04-01T07:07:21.497Z,3.10
2019-04-01T07:09:50.669Z,2.33
2019-04-01T07:12:16.379Z,2.62
2019-04-01T07:14:42.832Z,2.92
2019-04-01T07:17:09.617Z,2.60
2019-04-01T07:19:35.965Z,2.10
2019-04-01T07:22:02.557Z,2.55
2019-04-01T07:24:29.111Z,2.20
2019-04-01T07:26:55.584Z,2.37
2019-04-01T07:29:22.275Z,2.30
2019-04-01T07:31:49.080Z,2.33
2019-04-01T07:34:15.465Z,2.52
2019-04-01T07:36:42.041Z,2.00
2019-04-01T07:39:08.636Z,2.40
2019-04-01T07:41:34.992Z,2.92
2019-04-01T07:44:02.174Z,4.00
2019-04-01T07:46:28.871Z,2.55
2019-04-01T07:48:55.490Z,2.80
2019-04-01T07:51:22.007Z,2.02
2019-04-01T07:53:48.558Z,2.25
2019-04-01T07:56:17.251Z,2.25
2019-04-01T07:58:43.633Z,1.87
2019-04-01T08:01:10.180Z,2.05
2019-04-01T08:03:36.921Z,1.90
2019-04-01T08:06:03.447Z,2.58
2019-04-01T08:08:29.829Z,2.42
2019-04-01T08:10:56.497Z,1.87
2019-04-01T08:13:22.881Z,2.00
2019-04-01T08:15:49.363Z,2.08
2019-04-01T08:18:15.807Z,1.77
2019-04-01T08:20:42.302Z,2.20
2019-04-01T08:23:08.699Z,2.05
2019-04-01T08:25:35.220Z,1.90
2019-04-01T08:28:01.795Z,1.67
2019-04-01T08:30:28.049Z,1.80
2019-04-01T08:32:54.655Z,1.57
2019-04-01T08:35:21.228Z,1.90
2019-04-01T08:37:47.594Z,1.50
2019-04-01T08:40:14.094Z,1.72
2019-04-01T08:42:40.593Z,2.00
2019-04-01T08:45:07.968Z,1.52
2019-04-01T08:47:34.440Z,2.10
2019-04-01T08:50:03.827Z,1.90
2019-04-01T08:52:30.230Z,1.87
2019-04-01T08:54:56.742Z,1.60
2019-04-01T08:57:23.351Z,1.52
2019-04-01T08:59:50.520Z,1.65
2019-04-01T09:02:19.901Z,1.70
2019-04-01T09:04:46.181Z,1.77
2019-04-01T09:07:12.802Z,1.50
2019-04-01T09:09:40.508Z,2.15
2019-04-01T09:12:07.292Z,1.50
2019-04-01T09:14:33.741Z,1.70
2019-04-01T09:17:00.476Z,1.77
2019-04-01T09:19:26.695Z,2.10
2019-04-01T09:21:53.056Z,2.02
2019-04-01T09:24:19.561Z,1.87
2019-04-01T09:26:45.817Z,1.72
2019-04-01T09:29:12.083Z,1.70
2019-04-01T09:31:38.432Z,2.17
2019-04-01T09:34:04.884Z,1.80
2019-04-01T09:36:31.137Z,1.90
2019-04-01T09:38:57.550Z,2.00
2019-04-01T09:41:23.815Z,2.05
2019-04-01T09:43:50.191Z,1.65
2019-04-01T09:46:16.470Z,2.02
2019-04-01T09:48:42.842Z,2.00
2019-04-01T09:51:09.232Z,2.00
2019-04-01T09:53:35.499Z,1.40
2019-04-01T09:56:01.931Z,3.87
2019-04-01T09:58:28.656Z,1.75
2019-04-01T10:00:54.948Z,1.72
2019-04-01T10:03:21.256Z,2.05
2019-04-01T10:05:47.606Z,2.05
2019-04-01T10:08:14.086Z,1.80
2019-04-01T10:10:40.636Z,2.50
2019-04-01T10:13:07.178Z,3.20
2019-04-01T10:15:33.571Z,2.20
2019-04-01T10:18:00.018Z,2.50
2019-04-01T10:20:26.297Z,1.82
2019-04-01T10:22:52.594Z,1.95
2019-04-01T10:25:19.009Z,2.10
2019-04-01T10:27:45.427Z,1.87
2019-04-01T10:30:12.334Z,1.80
2019-04-01T10:32:38.758Z,2.75
2019-04-01T10:35:06.241Z,2.35
2019-04-01T10:37:32.627Z,2.27
2019-04-01T10:40:00.310Z,1.75
2019-04-01T10:42:27.120Z,1.85
2019-04-01T10:44:53.480Z,1.70
2019-04-01T10:47:19.898Z,1.67
2019-04-01T10:49:46.351Z,1.60
2019-04-01T10:52:12.759Z,1.70
2019-04-01T10:54:39.229Z,1.80
2019-04-01T10:57:05.613Z,1.92
2019-04-01T10:59:31.851Z,1.60
2019-04-01T11:01:58.172Z,1.80
2019-04-01T11:04:24.593Z,1.57
2019-04-01T11:06:53.031Z,1.50
2019-04-01T11:09:19.889Z,2.12
2019-04-01T11:11:46.251Z,2.42
2019-04-01T11:14:14.476Z,1.90
2019-04-01T11:16:40.850Z,1.98
2019-04-01T11:19:07.191Z,1.82
2019-04-01T11:21:33.933Z,1.60
2019-04-01T11:24:00.327Z,1.62
2019-04-01T11:26:26.605Z,2.05
2019-04-01T11:28:52.972Z,1.87
2019-04-01T11:31:19.480Z,2.25
2019-04-01T11:33:46.729Z,1.82
2019-04-01T11:36:15.916Z,1.57
2019-04-01T11:38:42.434Z,1.70
2019-04-01T11:41:08.793Z,2.37
2019-04-01T11:43:35.756Z,1.77
2019-04-01T11:46:02.728Z,1.60
2019-04-01T11:48:29.235Z,1.70
2019-04-01T11:50:55.790Z,1.47
2019-04-01T11:53:22.099Z,2.08
2019-04-01T11:55:48.373Z,1.70
2019-04-01T11:58:14.830Z,1.77
2019-04-01T12:00:41.209Z,1.62
2019-04-01T12:03:07.544Z,2.05
2019-04-01T12:05:33.905Z,1.90
2019-04-01T12:08:03.500Z,2.05
2019-04-01T12:10:29.858Z,1.72
2019-04-01T12:12:56.208Z,1.65
2019-04-01T12:15:22.484Z,2.72
2019-04-01T12:17:48.882Z,1.80
2019-04-01T12:20:15.392Z,1.85
2019-04-01T12:22:45.501Z,2.25
2019-04-01T12:25:10.147Z,2.00
2019-04-01T12:27:36.439Z,1.55
2019-04-01T12:30:04.170Z,1.80
2019-04-01T12:33:02.788Z,1.50
2019-04-01T12:35:29.017Z,1.87
2019-04-01T12:37:55.535Z,1.60
2019-04-01T12:40:23.828Z,1.40
2019-04-01T12:42:51.582Z,1.70
2019-04-01T12:45:18.104Z,1.50
2019-04-01T12:47:44.411Z,1.90
2019-04-01T12:50:12.965Z,1.60
2019-04-01T12:52:39.390Z,1.82
2019-04-01T12:55:06.242Z,1.50
2019-04-01T12:57:32.746Z,1.90
2019-04-01T12:59:58.958Z,1.90
2019-04-01T13:02:25.456Z,2.12
2019-04-01T13:04:51.889Z,1.70
2019-04-01T13:07:18.220Z,1.90
2019-04-01T13:09:48.646Z,1.55
2019-04-01T13:12:14.966Z,1.87
2019-04-01T13:14:41.297Z,1.98
2019-04-01T13:17:07.555Z,1.60
2019-04-01T13:19:33.839Z,1.70
2019-04-01T13:22:00.127Z,2.00
2019-04-01T13:24:26.405Z,1.77
2019-04-01T13:26:52.644Z,1.55
2019-04-01T13:29:18.935Z,1.60
2019-04-01T13:31:45.219Z,1.70
2019-04-01T13:34:11.643Z,1.42
2019-04-01T13:36:38.169Z,1.67
2019-04-01T13:39:06.332Z,1.77
2019-04-01T13:41:42.161Z,1.45
2019-04-01T13:44:00.778Z,1.62
2019-04-01T13:46:27.041Z,1.60
2019-04-01T13:48:57.851Z,1.47
2019-04-01T13:51:21.700Z,1.72
2019-04-01T13:53:47.957Z,1.40
2019-04-01T13:56:14.243Z,1.57
2019-04-01T13:58:40.583Z,2.62
2019-04-01T14:01:06.960Z,1.57
2019-04-01T14:03:33.379Z,1.62
2019-04-01T14:05:59.661Z,1.50
2019-04-01T14:08:26.055Z,2.85
2019-04-01T14:10:52.323Z,1.30
2019-04-01T14:13:18.558Z,1.47
2019-04-01T14:15:44.887Z,1.40
2019-04-01T14:18:17.128Z,1.70
2019-04-01T14:20:43.590Z,1.25
2019-04-01T14:23:11.821Z,1.70
2019-04-01T14:25:38.059Z,1.37
2019-04-01T14:28:04.759Z,1.40
2019-04-01T14:30:31.130Z,1.52
2019-04-01T14:32:57.397Z,1.70
2019-04-01T14:35:24.048Z,1.70
2019-04-01T14:37:50.518Z,1.45
2019-04-01T14:40:17.049Z,1.65
2019-04-01T14:42:43.341Z,1.20
2019-04-01T14:45:12.948Z,1.57
2019-04-01T14:47:56.126Z,1.50
2019-04-01T14:50:08.122Z,1.47
2019-04-01T14:52:34.623Z,1.30
2019-04-01T14:55:02.401Z,1.70
2019-04-01T14:57:30.846Z,1.90
2019-04-01T14:59:57.303Z,1.67
2019-04-01T15:02:23.563Z,1.42
2019-04-01T15:04:50.201Z,1.80
2019-04-01T15:07:18.289Z,1.37
2019-04-01T15:09:46.419Z,1.70
2019-04-01T15:12:13.031Z,1.47
2019-04-01T15:14:39.361Z,1.50
2019-04-01T15:17:05.856Z,1.20
2019-04-01T15:19:32.113Z,1.25
2019-04-01T15:21:58.619Z,1.75
2019-04-01T15:24:24.933Z,1.02
2019-04-01T15:26:51.194Z,1.20
2019-04-01T15:29:17.515Z,1.87
2019-04-01T15:31:43.744Z,1.52
2019-04-01T15:34:10.241Z,1.60
2019-04-01T15:36:36.676Z,1.40
2019-04-01T15:39:24.724Z,1.40
2019-04-01T15:41:51.365Z,1.30
2019-04-01T15:44:17.719Z,1.55
2019-04-01T15:46:44.008Z,1.35
2019-04-01T15:49:11.425Z,1.30
2019-04-01T15:51:37.879Z,1.40
2019-04-01T15:54:04.482Z,1.20
2019-04-01T15:56:30.676Z,1.45
2019-04-01T15:58:57.007Z,1.42
2019-04-01T16:01:23.456Z,1.42
2019-04-01T16:03:49.829Z,1.30
2019-04-01T16:06:16.499Z,1.27
2019-04-01T16:08:42.701Z,1.30
2019-04-01T16:11:09.177Z,1.40
2019-04-01T16:13:38.285Z,2.12
2019-04-01T16:16:07.201Z,1.70
2019-04-01T16:18:34.661Z,1.85
2019-04-01T16:21:01.376Z,1.40
2019-04-01T16:23:27.754Z,1.32
2019-04-01T16:25:54.122Z,1.50
2019-04-01T16:28:20.601Z,1.98
2019-04-01T16:30:47.405Z,1.25
2019-04-01T16:33:13.958Z,1.32
2019-04-01T16:35:40.366Z,1.30
2019-04-01T16:38:06.814Z,1.80
2019-04-01T16:40:33.292Z,1.25
2019-04-01T16:42:59.619Z,1.40
2019-04-01T16:45:25.977Z,1.60
2019-04-01T16:47:52.450Z,1.62
2019-04-01T16:50:21.862Z,1.50
2019-04-01T16:52:48.465Z,1.32
2019-04-01T16:55:18.043Z,1.32
2019-04-01T16:57:43.212Z,1.50
2019-04-01T17:00:13.951Z,1.30
2019-04-01T17:02:38.574Z,1.42
2019-04-01T17:05:06.546Z,1.45
2019-04-01T17:07:33.057Z,1.57
2019-04-01T17:09:59.428Z,1.40
2019-04-01T17:12:25.687Z,1.40
2019-04-01T17:14:52.885Z,1.42
2019-04-01T17:17:19.487Z,1.40
2019-04-01T17:19:45.888Z,1.35
2019-04-01T17:22:12.343Z,1.37
2019-04-01T17:24:41.577Z,0.85
2019-04-01T17:27:12.486Z,0.98
2019-04-01T17:29:43.143Z,1.65
2019-04-01T17:32:09.451Z,1.50
2019-04-01T17:34:36.247Z,1.40
2019-04-01T17:37:02.740Z,1.30
2019-04-01T17:39:29.340Z,1.00
2019-04-01T17:41:55.616Z,1.30
2019-04-01T17:44:22.979Z,1.40
2019-04-01T17:46:49.976Z,1.50
2019-04-01T17:49:16.596Z,1.62
2019-04-01T17:51:42.882Z,1.50
2019-04-01T17:54:09.404Z,1.40
2019-04-01T17:56:36.239Z,1.62
2019-04-01T17:59:03.077Z,1.55
2019-04-01T18:01:32.904Z,1.77
2019-04-01T18:03:59.514Z,1.60
2019-04-01T18:06:25.778Z,1.30
2019-04-01T18:08:52.179Z,1.57
2019-04-01T18:11:18.429Z,1.30
2019-04-01T18:13:44.709Z,1.47
2019-04-01T18:16:11.120Z,1.40
2019-04-01T18:18:38.909Z,1.65
2019-04-01T18:21:05.590Z,1.45
2019-04-01T18:23:32.402Z,1.37
2019-04-01T18:25:59.011Z,1.60
2019-04-01T18:28:27.027Z,1.72
2019-04-01T18:30:53.367Z,1.52
2019-04-01T18:33:21.715Z,1.45
2019-04-01T18:35:48.060Z,1.50
2019-04-01T18:38:14.345Z,1.40
2019-04-01T18:40:40.619Z,1.60
2019-04-01T18:43:07.109Z,1.57
2019-04-01T18:45:33.526Z,1.75
2019-04-01T18:47:59.995Z,1.42
2019-04-01T18:50:26.246Z,1.72
2019-04-01T18:52:52.929Z,1.60
2019-04-01T18:55:19.601Z,1.80
2019-04-01T18:57:46.044Z,1.65
2019-04-01T19:00:12.929Z,1.75
2019-04-01T19:02:39.595Z,1.60
2019-04-01T19:05:06.087Z,1.70
2019-04-01T19:07:32.346Z,1.50
2019-04-01T19:10:05.877Z,1.50
2019-04-01T19:12:26.876Z,1.65
2019-04-01T19:14:53.258Z,1.50
2019-04-01T19:17:19.869Z,1.87
2019-04-01T19:19:48.606Z,1.70
2019-04-01T19:22:14.476Z,1.65
2019-04-01T19:24:41.204Z,1.65
2019-04-01T19:27:07.465Z,1.60
2019-04-01T19:29:34.024Z,1.70
2019-04-01T19:32:00.536Z,1.60
2019-04-01T19:34:27.250Z,2.00
2019-04-01T19:36:56.584Z,1.90
2019-04-01T19:39:23.240Z,1.55
2019-04-01T19:41:50.129Z,1.80
2019-04-01T19:44:16.673Z,1.72
2019-04-01T19:46:43.130Z,1.90
2019-04-01T19:49:11.541Z,1.90
2019-04-01T19:51:37.944Z,1.85
2019-04-01T19:54:04.313Z,1.92
2019-04-01T19:56:31.681Z,1.60
2019-04-01T19:58:58.147Z,1.57
2019-04-01T20:01:24.927Z,2.02
2019-04-01T20:03:51.761Z,2.02
2019-04-01T20:06:18.490Z,1.60
2019-04-01T20:08:47.004Z,1.70
2019-04-01T20:11:15.200Z,1.57
2019-04-01T20:13:42.850Z,1.65
2019-04-01T20:16:10.238Z,1.70
2019-04-01T20:18:36.950Z,1.70
2019-04-01T20:21:03.730Z,1.42
2019-04-01T20:23:32.105Z,1.40
2019-04-01T20:25:58.795Z,1.77
2019-04-01T20:28:25.106Z,1.62
2019-04-01T20:30:51.537Z,1.62
2019-04-01T20:33:19.588Z,1.62
2019-04-01T20:35:46.103Z,1.82
2019-04-01T20:38:12.506Z,1.75
2019-04-01T20:40:40.839Z,1.82
2019-04-01T20:43:07.253Z,2.05
2019-04-01T20:45:33.688Z,1.72
2019-04-01T20:47:59.946Z,1.75
2019-04-01T20:50:27.201Z,1.80
2019-04-01T20:52:54.305Z,1.90
2019-04-01T20:55:20.671Z,1.90
2019-04-01T20:57:57.958Z,1.70
2019-04-01T21:00:24.644Z,1.75
2019-04-01T21:02:50.896Z,1.67
2019-04-01T21:05:17.354Z,1.77
2019-04-01T21:07:43.644Z,1.67
2019-04-01T21:10:10.841Z,1.70
2019-04-01T21:12:37.711Z,1.60
2019-04-01T21:15:06.089Z,1.87
2019-04-01T21:17:32.641Z,1.75
2019-04-01T21:19:58.944Z,1.80
2019-04-01T21:22:25.423Z,1.50
2019-04-01T21:24:51.718Z,1.50
2019-04-01T21:27:18.025Z,2.15
2019-04-01T21:29:44.481Z,2.10
2019-04-01T21:32:10.801Z,2.10
2019-04-01T21:34:37.122Z,1.90
2019-04-01T21:37:03.513Z,1.87
2019-04-01T21:39:30.254Z,1.65
2019-04-01T21:41:57.043Z,1.60
2019-04-01T21:44:23.343Z,1.80
2019-04-01T21:46:49.620Z,1.90
2019-04-01T21:49:15.979Z,1.70
2019-04-01T21:51:42.255Z,1.82
2019-04-01T21:54:30.470Z,1.57
2019-04-01T21:56:56.617Z,1.45
2019-04-01T21:59:22.802Z,1.60
2019-04-01T22:01:49.160Z,1.55
2019-04-01T22:04:21.093Z,1.67
2019-04-01T22:06:47.914Z,1.50
2019-04-01T22:09:14.289Z,1.80
2019-04-01T22:11:40.547Z,1.77
2019-04-01T22:14:06.928Z,2.08
2019-04-01T22:16:33.295Z,1.92
2019-04-01T22:18:59.588Z,1.87
2019-04-01T22:21:25.873Z,1.70
2019-04-01T22:23:52.183Z,1.80
2019-04-01T22:26:18.469Z,1.67
2019-04-01T22:28:44.921Z,1.72
2019-04-01T22:31:11.166Z,1.75
2019-04-01T22:33:37.410Z,1.75
2019-04-01T22:36:03.639Z,1.60
2019-04-01T22:38:29.903Z,1.70
2019-04-01T22:40:56.359Z,2.10
2019-04-01T22:43:22.510Z,1.80
2019-04-01T22:45:49.275Z,1.95
2019-04-01T22:48:15.829Z,1.65
2019-04-01T22:50:42.054Z,1.72
2019-04-01T22:53:08.322Z,1.95
2019-04-01T22:55:34.653Z,2.10
2019-04-01T22:58:00.859Z,1.98
2019-04-01T23:00:27.160Z,1.90
2019-04-01T23:02:55.280Z,2.20
2019-04-01T23:05:21.739Z,1.90
2019-04-01T23:07:48.005Z,2.10
2019-04-01T23:10:14.617Z,2.20
2019-04-01T23:12:40.936Z,1.95
2019-04-01T23:15:08.325Z,2.33
2019-04-01T23:17:34.599Z,2.22
2019-04-01T23:20:00.923Z,2.12
2019-04-01T23:22:29.089Z,1.92
2019-04-01T23:24:57.251Z,2.20
2019-04-01T23:27:24.281Z,2.33
2019-04-01T23:29:51.272Z,2.08
2019-04-01T23:32:17.911Z,2.00
2019-04-01T23:34:44.041Z,2.37
2019-04-01T23:37:10.350Z,2.10
2019-04-01T23:39:36.559Z,2.05
2019-04-01T23:42:58.841Z,2.20
2019-04-01T23:45:25.068Z,2.35
2019-04-01T23:47:51.495Z,2.40
2019-04-01T23:50:17.844Z,2.40
2019-04-01T23:52:44.072Z,2.45
2019-04-01T23:55:10.559Z,2.15
2019-04-01T23:57:38.700Z,2.25
